Time;durP1;ratioP1;P1;durP2;ratioP2;P2;SDS_P1;SDS_P2;PMS_P1;PMS_P2;Temp;Humidity;BMP_temperature;BMP_pressure;BME280_temperature;BME280_humidity;BME280_pressure;Samples;Min_cycle;Max_cycle;Signal;HPM_P1;HPM_P2
2022/06/05 00:00:30;;;;;;;12.48;7.55;;;16.30;99.90;;;;;;5071846;28;20461;-76
2022/06/05 00:03:01;;;;;;;15.25;8.45;;;16.30;99.90;;;;;;5071509;28;20036;-75
2022/06/05 00:05:43;;;;;;;12.07;7.63;;;16.30;99.90;;;;;;5071396;28;20032;-75
2022/06/05 00:08:38;;;;;;;11.20;8.02;;;16.30;99.90;;;;;;5071901;28;20491;-75
2022/06/05 00:11:04;;;;;;;13.05;7.82;;;16.30;99.90;;;;;;5053546;28;20029;-75
2022/06/05 00:13:36;;;;;;;17.38;8.35;;;16.30;99.90;;;;;;5061344;28;20449;-75
2022/06/05 00:16:01;;;;;;;13.88;7.90;;;16.30;99.90;;;;;;5068694;28;20028;-75
2022/06/05 00:18:32;;;;;;;13.85;7.90;;;16.20;99.90;;;;;;5071452;28;20070;-75
2022/06/05 00:20:58;;;;;;;18.20;8.13;;;16.20;99.90;;;;;;5069686;28;20021;-76
2022/06/05 00:23:24;;;;;;;14.90;8.30;;;16.20;99.90;;;;;;5052769;28;20090;-76
2022/06/05 00:26:31;;;;;;;12.73;7.80;;;16.20;99.90;;;;;;5065700;28;20089;-76
2022/06/05 00:28:57;;;;;;;12.20;7.85;;;16.20;99.90;;;;;;5063014;28;20310;-76
2022/06/05 00:31:31;;;;;;;14.77;7.90;;;16.10;99.90;;;;;;5071019;28;20035;-76
2022/06/05 00:33:57;;;;;;;16.20;7.93;;;16.20;99.90;;;;;;5070602;28;20028;-75
2022/06/05 00:36:41;;;;;;;15.43;7.75;;;16.10;99.90;;;;;;5071169;28;20435;-76
2022/06/05 00:39:19;;;;;;;20.77;8.02;;;16.20;99.90;;;;;;5070934;28;20443;-75
2022/06/05 00:41:51;;;;;;;17.40;8.10;;;16.20;99.90;;;;;;5070650;28;20032;-75
2022/06/05 00:44:24;;;;;;;13.98;8.30;;;16.20;99.90;;;;;;5070580;28;20086;-76
2022/06/05 00:46:51;;;;;;;14.93;8.77;;;16.20;99.90;;;;;;5070955;28;20392;-75
2022/06/05 00:49:20;;;;;;;14.50;8.55;;;16.20;99.90;;;;;;5070699;28;20419;-75
2022/06/05 00:51:46;;;;;;;19.83;8.95;;;16.10;99.90;;;;;;5069841;28;20358;-76
2022/06/05 00:54:12;;;;;;;15.40;8.05;;;16.10;99.90;;;;;;5070845;28;20078;-75
2022/06/05 00:56:38;;;;;;;16.05;8.00;;;16.10;99.90;;;;;;5060018;28;20025;-76
2022/06/05 00:59:05;;;;;;;14.73;8.98;;;16.10;99.90;;;;;;5035873;28;20488;-75
2022/06/05 01:01:32;;;;;;;11.90;8.38;;;16.10;99.90;;;;;;5058057;28;20175;-76
2022/06/05 01:04:01;;;;;;;13.63;8.23;;;16.10;99.90;;;;;;5064187;28;20021;-75
2022/06/05 01:06:29;;;;;;;12.00;7.78;;;16.10;99.90;;;;;;5063710;28;20020;-75
2022/06/05 01:08:54;;;;;;;12.88;7.82;;;16.10;99.90;;;;;;5070208;28;20065;-75
2022/06/05 01:11:39;;;;;;;12.50;8.35;;;16.10;99.90;;;;;;5052506;28;20028;-75
2022/06/05 01:14:13;;;;;;;15.38;8.45;;;16.10;99.90;;;;;;5056188;28;20380;-75
2022/06/05 01:16:57;;;;;;;14.05;8.48;;;16.10;99.90;;;;;;5070369;28;20027;-75
2022/06/05 01:19:41;;;;;;;18.95;8.93;;;16.00;99.90;;;;;;5057178;28;20040;-76
2022/06/05 01:22:39;;;;;;;16.52;8.50;;;16.00;99.90;;;;;;5070326;28;20024;-75
2022/06/05 01:25:42;;;;;;;14.15;8.48;;;16.00;99.90;;;;;;5070536;28;20044;-76
2022/06/05 01:28:11;;;;;;;16.58;7.90;;;16.10;99.90;;;;;;5059768;28;20046;-76
2022/06/05 01:31:32;;;;;;;16.13;8.52;;;16.10;99.90;;;;;;5056059;28;20058;-76
2022/06/05 01:33:58;;;;;;;14.68;8.23;;;16.10;99.90;;;;;;5023708;28;20046;-75
2022/06/05 01:36:33;;;;;;;15.55;7.80;;;16.10;99.90;;;;;;5027603;28;20086;-75
2022/06/05 01:39:10;;;;;;;14.43;8.35;;;16.20;99.90;;;;;;5013778;28;20072;-75
2022/06/05 01:41:48;;;;;;;12.65;8.05;;;16.10;99.90;;;;;;5015203;28;20046;-74
2022/06/05 01:44:18;;;;;;;17.70;8.50;;;16.20;99.90;;;;;;5027295;28;20041;-75
2022/06/05 01:46:44;;;;;;;16.13;8.45;;;16.10;99.90;;;;;;5025403;28;20458;-76
2022/06/05 01:49:52;;;;;;;15.30;8.35;;;16.10;99.90;;;;;;5014019;28;20100;-76
2022/06/05 01:52:32;;;;;;;12.80;8.45;;;16.10;99.90;;;;;;4968772;28;20066;-75
2022/06/05 01:55:22;;;;;;;13.32;8.45;;;16.10;99.90;;;;;;4968840;28;20043;-76
2022/06/05 01:57:50;;;;;;;14.63;8.77;;;16.10;99.90;;;;;;4952513;28;20037;-75
2022/06/05 02:00:20;;;;;;;15.35;8.10;;;16.10;99.90;;;;;;4968604;28;20031;-75
2022/06/05 02:03:10;;;;;;;13.52;8.80;;;16.10;99.90;;;;;;4968771;28;20605;-75
2022/06/05 02:05:48;;;;;;;15.05;9.00;;;16.10;99.90;;;;;;4956217;28;20031;-75
2022/06/05 02:08:22;;;;;;;13.10;8.70;;;16.10;99.90;;;;;;4972529;28;20609;-75
2022/06/05 02:11:00;;;;;;;13.10;9.10;;;16.00;99.90;;;;;;4972396;28;20125;-75
2022/06/05 02:13:26;;;;;;;15.95;9.45;;;16.00;99.90;;;;;;4943082;28;20042;-74
2022/06/05 02:15:52;;;;;;;14.50;9.77;;;16.00;99.90;;;;;;4944115;29;20023;-74
2022/06/05 02:18:18;;;;;;;17.95;9.15;;;15.90;99.90;;;;;;4970664;28;20029;-75
2022/06/05 02:20:45;;;;;;;18.33;9.60;;;15.90;99.90;;;;;;4972233;28;20035;-75
2022/06/05 02:23:15;;;;;;;26.95;10.18;;;15.90;99.90;;;;;;4972140;28;20042;-75
2022/06/05 02:25:41;;;;;;;18.23;10.40;;;15.80;99.90;;;;;;4992181;28;20451;-75
2022/06/05 02:28:12;;;;;;;18.15;10.52;;;15.70;99.90;;;;;;5068028;28;20036;-75
2022/06/05 02:30:48;;;;;;;15.75;10.07;;;15.70;99.90;;;;;;5073347;28;20440;-75
2022/06/05 02:33:37;;;;;;;15.10;10.23;;;15.70;99.90;;;;;;5073297;28;20052;-75
2022/06/05 02:36:02;;;;;;;21.10;10.40;;;15.60;99.90;;;;;;5073217;28;20035;-76
2022/06/05 02:39:01;;;;;;;18.63;9.77;;;15.60;99.90;;;;;;5072933;28;20025;-76
2022/06/05 02:41:34;;;;;;;18.10;10.48;;;15.50;99.90;;;;;;5073292;28;20029;-76
2022/06/05 02:44:31;;;;;;;17.92;10.70;;;15.50;99.90;;;;;;5059227;28;20033;-76
2022/06/05 02:47:46;;;;;;;17.77;10.68;;;15.40;99.90;;;;;;5072943;28;20052;-76
2022/06/05 02:50:30;;;;;;;19.80;11.07;;;15.30;99.90;;;;;;5059882;28;20296;-76
2022/06/05 02:53:04;;;;;;;19.45;11.18;;;15.20;99.90;;;;;;5063950;28;20075;-76
2022/06/05 02:55:30;;;;;;;20.58;11.63;;;15.10;99.90;;;;;;5037359;28;20561;-76
2022/06/05 02:57:56;;;;;;;22.10;11.60;;;15.10;99.90;;;;;;5073479;28;20020;-76
2022/06/05 03:00:25;;;;;;;19.15;11.38;;;15.10;99.90;;;;;;5060301;28;20033;-76
2022/06/05 03:05:36;;;;;;;23.05;12.23;;;15.00;99.90;;;;;;5072679;28;20048;-77
2022/06/05 03:08:02;;;;;;;20.00;12.43;;;14.90;99.90;;;;;;5073096;28;20031;-76
2022/06/05 03:10:28;;;;;;;23.48;12.65;;;14.90;99.90;;;;;;5060421;28;20017;-76
2022/06/05 03:12:54;;;;;;;18.83;11.82;;;14.90;99.90;;;;;;5071200;28;20103;-76
2022/06/05 03:15:20;;;;;;;17.00;11.05;;;14.80;99.90;;;;;;5071723;28;20032;-76
2022/06/05 03:17:46;;;;;;;19.08;12.13;;;14.80;99.90;;;;;;5072459;28;20056;-76
2022/06/05 03:20:14;;;;;;;22.38;12.52;;;14.80;99.90;;;;;;5064267;28;20053;-76
2022/06/05 03:22:40;;;;;;;20.13;11.95;;;14.80;99.90;;;;;;5067036;28;20507;-76
2022/06/05 03:25:07;;;;;;;21.13;11.85;;;14.70;99.90;;;;;;5072189;28;20032;-76
2022/06/05 03:27:33;;;;;;;21.05;11.98;;;14.70;99.90;;;;;;5072537;28;20012;-76
2022/06/05 03:29:59;;;;;;;22.42;13.15;;;14.60;99.90;;;;;;5067325;28;20550;-76
2022/06/05 03:32:26;;;;;;;22.52;12.98;;;14.60;99.90;;;;;;5063420;28;20028;-76
2022/06/05 03:34:52;;;;;;;19.30;12.85;;;14.60;99.90;;;;;;5072118;28;20460;-76
2022/06/05 03:37:19;;;;;;;22.27;14.02;;;14.60;99.90;;;;;;5072267;28;20028;-75
2022/06/05 03:39:46;;;;;;;20.90;12.70;;;14.60;99.90;;;;;;5070732;28;20020;-76
2022/06/05 03:42:12;;;;;;;26.55;13.40;;;14.60;99.90;;;;;;5060203;28;20021;-75
2022/06/05 03:44:38;;;;;;;22.83;12.75;;;14.50;99.90;;;;;;5072113;28;20029;-76
2022/06/05 03:47:05;;;;;;;21.30;13.30;;;14.50;99.90;;;;;;5057679;28;20473;-78
2022/06/05 03:49:32;;;;;;;25.42;13.88;;;14.40;99.90;;;;;;5072111;28;20020;-75
2022/06/05 03:51:58;;;;;;;23.40;13.63;;;14.40;99.90;;;;;;5071768;28;20024;-76
2022/06/05 03:54:24;;;;;;;22.52;13.88;;;14.40;99.90;;;;;;5071940;28;20430;-75
2022/06/05 03:56:49;;;;;;;23.63;13.77;;;14.40;99.90;;;;;;5071717;28;20479;-75
2022/06/05 03:59:15;;;;;;;23.33;13.70;;;14.40;99.90;;;;;;5071645;28;20030;-76
2022/06/05 04:01:40;;;;;;;28.55;14.57;;;14.40;99.90;;;;;;5071414;28;20025;-76
2022/06/05 04:04:06;;;;;;;22.00;13.70;;;14.40;99.90;;;;;;5071577;28;20028;-75
2022/06/05 04:06:32;;;;;;;21.05;13.18;;;14.40;99.90;;;;;;5063479;28;20025;-75
2022/06/05 04:09:02;;;;;;;21.40;13.88;;;14.40;99.90;;;;;;5066671;28;20100;-76
2022/06/05 04:11:30;;;;;;;23.50;13.32;;;14.40;99.90;;;;;;5058402;28;20020;-76
2022/06/05 04:13:56;;;;;;;22.08;13.80;;;14.40;99.90;;;;;;5071766;28;20461;-75
2022/06/05 04:16:28;;;;;;;23.75;14.85;;;14.40;99.90;;;;;;5071283;28;20021;-75
2022/06/05 04:18:54;;;;;;;24.65;14.27;;;14.40;99.90;;;;;;5071566;28;20041;-75
2022/06/05 04:21:26;;;;;;;24.60;14.40;;;14.30;99.90;;;;;;5071689;28;20035;-76
2022/06/05 04:23:53;;;;;;;23.60;14.05;;;14.30;99.90;;;;;;5071128;28;20111;-76
2022/06/05 04:26:30;;;;;;;25.98;14.75;;;14.30;99.90;;;;;;5071133;28;20078;-76
2022/06/05 04:28:56;;;;;;;23.38;14.15;;;14.30;99.90;;;;;;5053105;28;20046;-75
2022/06/05 04:31:26;;;;;;;25.38;15.27;;;14.20;99.90;;;;;;5070917;28;20024;-75
2022/06/05 04:33:53;;;;;;;26.92;14.68;;;14.20;99.90;;;;;;5070869;28;20012;-75
2022/06/05 04:36:19;;;;;;;28.17;14.88;;;14.20;99.90;;;;;;5070739;28;20075;-75
2022/06/05 04:38:45;;;;;;;26.08;15.35;;;14.20;99.90;;;;;;5071121;28;20044;-75
2022/06/05 04:41:12;;;;;;;24.92;14.55;;;14.20;99.90;;;;;;5070888;28;20024;-76
2022/06/05 04:43:38;;;;;;;23.77;15.30;;;14.20;99.90;;;;;;5052510;28;20013;-74
2022/06/05 04:46:04;;;;;;;25.33;16.13;;;14.20;99.90;;;;;;5070779;28;20051;-75
2022/06/05 04:48:30;;;;;;;26.65;15.20;;;14.20;99.90;;;;;;5070892;28;20017;-74
2022/06/05 04:50:56;;;;;;;28.90;15.38;;;14.10;99.90;;;;;;5065046;28;20372;-74
2022/06/05 04:53:22;;;;;;;25.70;15.38;;;14.20;99.90;;;;;;5070390;28;20021;-74
2022/06/05 04:55:47;;;;;;;26.13;15.57;;;14.10;99.90;;;;;;5056916;28;20024;-74
2022/06/05 04:58:13;;;;;;;25.35;14.50;;;14.20;99.90;;;;;;5070128;28;20472;-74
2022/06/05 05:00:39;;;;;;;29.30;15.13;;;14.20;99.90;;;;;;5070474;28;20020;-74
2022/06/05 05:03:06;;;;;;;26.60;15.93;;;14.20;99.90;;;;;;5070347;28;20166;-74
2022/06/05 05:05:33;;;;;;;26.70;15.50;;;14.20;99.90;;;;;;5070481;28;20044;-74
2022/06/05 05:07:59;;;;;;;22.17;14.85;;;14.20;99.90;;;;;;5070739;28;20032;-74
2022/06/05 05:10:24;;;;;;;22.77;14.90;;;14.20;99.90;;;;;;5070321;28;20075;-75
2022/06/05 05:12:50;;;;;;;25.10;15.23;;;14.20;99.90;;;;;;5070390;28;20466;-74
2022/06/05 05:15:15;;;;;;;28.50;15.63;;;14.20;99.90;;;;;;5070523;28;20074;-74
2022/06/05 05:17:41;;;;;;;27.40;15.25;;;14.20;99.90;;;;;;5070584;28;20046;-74
2022/06/05 05:20:07;;;;;;;26.15;16.13;;;14.20;99.90;;;;;;5070124;28;20048;-74
2022/06/05 05:22:37;;;;;;;25.83;15.90;;;14.20;99.90;;;;;;5070312;28;20438;-74
2022/06/05 05:25:05;;;;;;;29.73;15.88;;;14.20;99.90;;;;;;5070206;28;20025;-74
2022/06/05 05:27:31;;;;;;;26.33;15.63;;;14.30;99.90;;;;;;5070244;28;20093;-74
2022/06/05 05:29:57;;;;;;;25.85;15.32;;;14.30;99.90;;;;;;5065522;28;20027;-74
2022/06/05 05:32:23;;;;;;;26.52;16.05;;;14.30;99.90;;;;;;5060873;28;20636;-74
2022/06/05 05:34:48;;;;;;;27.38;15.68;;;14.40;99.90;;;;;;5069964;28;20032;-74
2022/06/05 05:37:14;;;;;;;30.20;16.45;;;14.40;99.90;;;;;;5070039;28;20032;-74
2022/06/05 05:42:23;;;;;;;25.75;15.95;;;14.40;99.90;;;;;;5059359;28;20062;-74
2022/06/05 05:44:51;;;;;;;29.15;15.27;;;14.40;99.90;;;;;;5070180;28;20264;-74
2022/06/05 05:47:23;;;;;;;31.05;16.25;;;14.40;99.90;;;;;;5070184;28;20055;-74
2022/06/05 05:49:54;;;;;;;27.45;16.25;;;14.50;99.90;;;;;;5069908;28;20067;-74
2022/06/05 05:52:21;;;;;;;28.17;16.67;;;14.50;99.90;;;;;;5069774;28;20367;-74
2022/06/05 05:54:46;;;;;;;25.73;16.08;;;14.50;99.90;;;;;;5060629;28;20657;-74
2022/06/05 05:57:12;;;;;;;26.02;15.93;;;14.50;99.90;;;;;;5051327;28;20032;-74
2022/06/05 05:59:38;;;;;;;29.95;16.10;;;14.50;99.90;;;;;;5069937;28;20021;-74
2022/06/05 06:02:10;;;;;;;28.38;16.55;;;14.60;99.90;;;;;;5070047;28;20386;-75
2022/06/05 06:04:40;;;;;;;25.27;15.60;;;14.60;99.90;;;;;;5055731;28;20036;-74
2022/06/05 06:07:05;;;;;;;28.75;16.77;;;14.60;99.90;;;;;;5051940;28;20032;-75
2022/06/05 06:09:33;;;;;;;26.42;15.80;;;14.60;99.90;;;;;;5051613;28;20047;-74
2022/06/05 06:11:59;;;;;;;29.42;16.58;;;14.60;99.90;;;;;;5070090;28;20040;-74
2022/06/05 06:14:24;;;;;;;25.08;15.88;;;14.60;99.90;;;;;;5055494;28;20519;-74
2022/06/05 06:16:50;;;;;;;25.80;17.10;;;14.60;99.90;;;;;;5051557;28;20020;-74
2022/06/05 06:19:16;;;;;;;29.27;16.42;;;14.60;99.90;;;;;;5069558;28;20285;-74
2022/06/05 06:21:41;;;;;;;26.13;16.88;;;14.60;99.90;;;;;;5069792;28;20021;-75
2022/06/05 06:24:07;;;;;;;28.10;16.90;;;14.60;99.90;;;;;;5069688;28;20500;-74
2022/06/05 06:26:33;;;;;;;29.25;17.10;;;14.70;99.90;;;;;;5051512;28;20020;-74
2022/06/05 06:28:58;;;;;;;26.33;16.80;;;14.70;99.90;;;;;;5069939;28;20090;-74
2022/06/05 06:31:24;;;;;;;31.92;17.42;;;14.70;99.90;;;;;;5069338;28;20036;-75
2022/06/05 06:33:50;;;;;;;29.95;17.60;;;14.70;99.90;;;;;;5069433;28;20392;-75
2022/06/05 06:36:18;;;;;;;27.73;15.95;;;14.70;99.90;;;;;;5037398;28;20052;-74
2022/06/05 06:38:44;;;;;;;30.13;15.98;;;14.80;99.90;;;;;;5069640;28;20017;-74
2022/06/05 06:41:13;;;;;;;27.70;16.95;;;14.80;99.90;;;;;;5068564;28;20035;-74
2022/06/05 06:43:41;;;;;;;27.88;16.73;;;14.80;99.90;;;;;;5065086;28;20103;-74
2022/06/05 06:46:07;;;;;;;29.63;16.23;;;14.80;99.90;;;;;;5043660;28;20037;-74
2022/06/05 06:48:33;;;;;;;28.60;17.13;;;14.80;99.90;;;;;;5045320;28;20096;-74
2022/06/05 06:51:00;;;;;;;28.95;16.33;;;14.80;99.90;;;;;;5050048;28;20553;-74
2022/06/05 06:53:27;;;;;;;26.27;16.15;;;14.80;99.90;;;;;;5035423;28;20100;-74
2022/06/05 06:55:53;;;;;;;27.58;16.33;;;14.90;99.90;;;;;;5065323;28;20025;-74
2022/06/05 06:58:19;;;;;;;28.25;17.02;;;14.90;99.90;;;;;;5061390;28;20456;-74
2022/06/05 07:00:45;;;;;;;26.42;16.63;;;14.90;99.90;;;;;;5068435;28;20217;-74
2022/06/05 07:03:11;;;;;;;25.83;16.42;;;14.90;99.90;;;;;;5058582;28;20387;-75
2022/06/05 07:05:37;;;;;;;25.70;17.23;;;14.90;99.90;;;;;;5064186;28;20396;-75
2022/06/05 07:08:03;;;;;;;26.85;17.25;;;15.00;99.90;;;;;;5066189;28;20041;-74
2022/06/05 07:10:29;;;;;;;27.95;16.50;;;15.00;99.90;;;;;;5063543;28;20066;-74
2022/06/05 07:12:55;;;;;;;28.13;16.75;;;15.00;99.90;;;;;;5063412;28;20020;-74
2022/06/05 07:15:20;;;;;;;25.83;17.20;;;15.10;99.90;;;;;;5063482;28;20098;-74
2022/06/05 07:17:46;;;;;;;29.15;16.70;;;15.10;99.90;;;;;;5036134;28;20032;-74
2022/06/05 07:20:13;;;;;;;29.65;16.75;;;15.20;99.90;;;;;;5052430;28;20151;-74
2022/06/05 07:22:38;;;;;;;29.27;18.13;;;15.20;99.90;;;;;;5061864;28;20074;-74
2022/06/05 07:25:05;;;;;;;25.08;16.60;;;15.30;99.90;;;;;;5052516;28;20459;-74
2022/06/05 07:27:30;;;;;;;24.67;16.85;;;15.30;99.90;;;;;;5058238;28;20032;-74
2022/06/05 07:29:56;;;;;;;28.48;17.67;;;15.40;99.90;;;;;;5062083;28;20020;-75
2022/06/05 07:32:22;;;;;;;25.02;16.95;;;15.40;99.90;;;;;;5071866;28;20052;-74
2022/06/05 07:34:48;;;;;;;26.50;17.08;;;15.50;99.90;;;;;;5067512;28;20086;-74
2022/06/05 07:37:14;;;;;;;25.52;16.45;;;15.60;99.90;;;;;;5033408;28;20017;-73
2022/06/05 07:39:40;;;;;;;25.08;16.90;;;15.60;99.90;;;;;;5065184;28;20048;-74
2022/06/05 07:42:07;;;;;;;30.20;17.75;;;15.70;99.90;;;;;;5052745;28;20075;-74
2022/06/05 07:44:35;;;;;;;28.17;16.35;;;15.80;99.90;;;;;;5052741;28;20065;-75
2022/06/05 07:47:04;;;;;;;26.13;16.35;;;15.90;99.90;;;;;;5065007;28;20112;-75
2022/06/05 07:49:30;;;;;;;23.05;15.73;;;16.00;99.90;;;;;;5052135;28;20024;-74
2022/06/05 07:54:40;;;;;;;24.52;16.05;;;16.10;99.90;;;;;;5058034;28;20107;-74
2022/06/05 07:57:12;;;;;;;22.77;16.20;;;16.30;99.90;;;;;;5073132;28;20049;-74
2022/06/05 07:59:41;;;;;;;24.90;16.98;;;16.30;99.90;;;;;;5072898;28;20044;-76
2022/06/05 08:02:27;;;;;;;23.38;16.02;;;16.50;99.90;;;;;;5069681;28;20074;-74
2022/06/05 08:04:54;;;;;;;22.08;16.33;;;16.60;99.90;;;;;;5068086;28;20499;-74
2022/06/05 08:07:22;;;;;;;23.40;15.88;;;16.70;99.90;;;;;;5069380;28;20111;-74
2022/06/05 08:09:48;;;;;;;22.45;16.25;;;16.80;99.90;;;;;;5069260;28;20020;-75
2022/06/05 08:12:16;;;;;;;23.00;15.98;;;16.90;99.90;;;;;;5067261;28;20017;-74
2022/06/05 08:14:44;;;;;;;24.23;16.42;;;17.00;99.90;;;;;;5072293;28;20676;-75
2022/06/05 08:17:13;;;;;;;23.38;15.10;;;17.00;99.90;;;;;;5067904;28;20016;-72
2022/06/05 08:19:40;;;;;;;24.52;16.08;;;17.10;99.90;;;;;;5073946;28;20036;-74
2022/06/05 08:22:08;;;;;;;25.00;15.38;;;17.20;99.90;;;;;;5072473;28;20413;-76
2022/06/05 08:24:33;;;;;;;22.52;15.45;;;17.30;99.90;;;;;;5058377;28;20033;-75
2022/06/05 08:26:59;;;;;;;22.02;15.80;;;17.40;99.90;;;;;;5072234;28;20013;-74
2022/06/05 08:29:25;;;;;;;21.95;14.68;;;17.60;99.90;;;;;;5072200;28;20032;-74
2022/06/05 08:31:51;;;;;;;24.02;15.13;;;17.70;99.90;;;;;;5071525;28;20023;-72
2022/06/05 08:34:17;;;;;;;21.15;14.80;;;17.80;99.90;;;;;;5060060;28;20025;-72
2022/06/05 08:36:43;;;;;;;21.80;14.95;;;18.00;99.90;;;;;;5064063;28;20493;-72
2022/06/05 08:42:23;;;;;;;21.13;14.85;;;18.40;99.90;;;;;;5072207;28;20118;-74
2022/06/05 08:45:08;;;;;;;20.95;14.52;;;18.70;99.90;;;;;;5070477;28;20407;-74
2022/06/05 08:47:52;;;;;;;21.55;14.45;;;19.00;99.90;;;;;;5068719;28;20025;-74
2022/06/05 08:50:35;;;;;;;21.40;14.63;;;19.30;99.90;;;;;;5065453;28;20059;-74
2022/06/05 08:53:21;;;;;;;19.75;14.15;;;19.50;99.90;;;;;;5063594;28;20027;-74
2022/06/05 08:55:49;;;;;;;21.77;14.65;;;19.70;99.90;;;;;;5054558;28;20028;-73
2022/06/05 08:58:40;;;;;;;24.60;15.98;;;19.80;99.90;;;;;;5061236;28;20025;-76
2022/06/05 09:01:35;;;;;;;21.50;15.13;;;20.00;99.90;;;;;;5056580;28;20025;-74
2022/06/05 09:04:19;;;;;;;22.80;14.82;;;20.20;99.90;;;;;;5033891;28;20040;-73
2022/06/05 09:06:50;;;;;;;22.25;15.10;;;20.30;99.90;;;;;;5070186;28;20036;-76
2022/06/05 09:09:26;;;;;;;19.85;14.57;;;20.40;99.90;;;;;;5069502;28;20032;-76
2022/06/05 09:12:11;;;;;;;20.15;15.02;;;20.50;99.90;;;;;;5071288;28;20712;-76
2022/06/05 09:14:38;;;;;;;21.25;14.57;;;20.60;99.90;;;;;;5070497;28;20020;-76
2022/06/05 09:17:16;;;;;;;20.20;15.20;;;20.60;99.90;;;;;;5070203;28;20533;-75
2022/06/05 09:19:43;;;;;;;19.10;13.73;;;20.70;99.90;;;;;;5070624;28;20052;-75
2022/06/05 09:22:18;;;;;;;18.95;14.32;;;20.70;99.90;;;;;;5069694;28;20008;-76
2022/06/05 09:25:14;;;;;;;19.67;14.75;;;20.70;99.90;;;;;;5070183;28;20024;-76
2022/06/05 09:28:13;;;;;;;19.95;14.77;;;20.70;99.90;;;;;;5063167;28;20469;-76
2022/06/05 09:30:44;;;;;;;22.52;15.07;;;20.80;99.90;;;;;;5067977;28;20028;-75
2022/06/05 09:33:21;;;;;;;22.50;14.88;;;20.70;99.90;;;;;;5069674;28;20240;-76
2022/06/05 09:36:00;;;;;;;18.90;15.10;;;20.80;99.90;;;;;;5050284;28;20021;-74
2022/06/05 09:38:40;;;;;;;22.95;15.70;;;21.00;99.90;;;;;;5069520;28;20023;-74
2022/06/05 09:41:18;;;;;;;20.73;14.93;;;21.00;99.90;;;;;;5070198;28;20029;-74
2022/06/05 09:43:53;;;;;;;20.85;14.95;;;21.00;99.90;;;;;;5063631;28;20016;-74
2022/06/05 09:46:25;;;;;;;21.75;14.73;;;21.10;99.90;;;;;;5063562;28;20484;-74
2022/06/05 09:49:01;;;;;;;21.98;14.90;;;21.10;99.90;;;;;;5045504;28;20220;-74
2022/06/05 09:51:26;;;;;;;22.30;15.07;;;21.10;99.90;;;;;;5063766;28;20071;-74
2022/06/05 09:54:06;;;;;;;21.48;15.98;;;21.10;99.90;;;;;;5067815;28;20090;-74
2022/06/05 09:59:54;;;;;;;20.52;16.08;;;20.90;99.90;;;;;;5069691;28;20027;-74
2022/06/05 10:02:22;;;;;;;21.00;15.18;;;20.90;99.90;;;;;;5061164;28;20077;-74
2022/06/05 10:04:49;;;;;;;18.95;15.15;;;20.80;99.90;;;;;;5070255;28;20530;-74
2022/06/05 10:07:33;;;;;;;25.77;18.15;;;20.90;99.90;;;;;;5069755;28;20027;-74
2022/06/05 10:10:05;;;;;;;19.85;16.50;;;20.80;99.90;;;;;;5040226;28;20039;-74
2022/06/05 10:12:42;;;;;;;21.30;15.88;;;20.70;99.90;;;;;;5069537;28;20028;-74
2022/06/05 10:15:29;;;;;;;20.65;15.25;;;20.70;99.90;;;;;;5069736;28;20040;-75
2022/06/05 10:17:58;;;;;;;18.92;15.55;;;20.70;99.90;;;;;;5069634;28;20059;-74
2022/06/05 10:20:29;;;;;;;23.75;16.75;;;20.70;99.90;;;;;;5069275;28;20048;-75
2022/06/05 10:23:11;;;;;;;21.27;16.30;;;20.80;99.90;;;;;;5055362;28;20032;-76
2022/06/05 10:25:59;;;;;;;22.38;16.73;;;20.70;99.90;;;;;;5061693;28;20060;-74
2022/06/05 10:28:28;;;;;;;21.58;15.93;;;20.70;99.90;;;;;;5059491;28;20488;-74
2022/06/05 10:31:07;;;;;;;25.67;17.15;;;20.70;99.90;;;;;;5077341;28;20056;-74
2022/06/05 10:34:09;;;;;;;25.10;16.00;;;20.80;99.90;;;;;;5064463;28;20095;-75
2022/06/05 10:37:10;;;;;;;24.55;17.30;;;20.70;99.90;;;;;;5078873;28;20013;-74
2022/06/05 10:40:14;;;;;;;25.65;17.35;;;20.60;99.90;;;;;;5076490;28;20112;-76
2022/06/05 10:42:58;;;;;;;27.70;17.10;;;20.50;99.90;;;;;;5075437;28;20031;-75
2022/06/05 10:45:34;;;;;;;27.63;17.38;;;20.50;99.90;;;;;;5077237;28;20031;-77
2022/06/05 10:48:00;;;;;;;26.27;17.83;;;20.40;99.90;;;;;;5066153;28;20021;-75
2022/06/05 10:50:43;;;;;;;24.60;17.60;;;20.30;99.90;;;;;;5077471;28;20024;-74
2022/06/05 10:53:21;;;;;;;26.90;17.52;;;20.30;99.90;;;;;;5074531;28;20088;-76
2022/06/05 10:55:59;;;;;;;27.77;17.13;;;20.30;99.90;;;;;;5089896;28;20054;-77
2022/06/05 10:58:51;;;;;;;26.23;17.77;;;20.40;99.90;;;;;;5088652;28;20025;-74
2022/06/05 11:01:50;;;;;;;25.67;17.83;;;20.40;99.90;;;;;;5073910;28;20033;-75
2022/06/05 11:04:22;;;;;;;23.85;17.27;;;20.30;99.90;;;;;;5084911;28;20032;-78
2022/06/05 11:06:58;;;;;;;26.08;17.05;;;20.20;99.90;;;;;;5091642;28;20526;-76
2022/06/05 11:09:49;;;;;;;22.15;16.20;;;20.10;99.90;;;;;;5079812;28;20021;-76
2022/06/05 11:15:54;;;;;;;26.38;16.67;;;20.00;99.90;;;;;;5069912;28;20040;-76
2022/06/05 11:18:35;;;;;;;26.60;16.75;;;20.00;99.90;;;;;;5049585;28;20040;-76
2022/06/05 11:21:02;;;;;;;25.00;15.60;;;19.90;99.90;;;;;;5069652;28;20047;-76
2022/06/05 11:23:33;;;;;;;26.42;16.55;;;19.90;99.90;;;;;;5081167;28;20025;-76
2022/06/05 11:26:40;;;;;;;26.30;17.30;;;19.80;99.90;;;;;;5081407;28;20069;-75
2022/06/05 11:29:21;;;;;;;25.15;16.73;;;19.90;99.90;;;;;;5094641;28;20072;-77
2022/06/05 11:32:20;;;;;;;23.77;16.15;;;19.80;99.90;;;;;;5097870;28;20019;-77
2022/06/05 11:35:40;;;;;;;24.65;17.40;;;19.70;99.90;;;;;;5095930;28;20066;-76
2022/06/05 11:38:21;;;;;;;26.23;17.05;;;19.70;99.90;;;;;;5000130;28;20041;-77
2022/06/05 11:41:03;;;;;;;23.80;15.85;;;19.70;99.90;;;;;;4989451;28;20035;-76
2022/06/05 11:43:38;;;;;;;25.55;17.02;;;19.80;99.90;;;;;;4982725;28;20031;-76
2022/06/05 11:46:15;;;;;;;24.08;16.45;;;19.70;99.90;;;;;;4980202;28;20066;-76
2022/06/05 11:49:19;;;;;;;24.50;16.55;;;19.80;99.90;;;;;;4982502;28;20201;-75
2022/06/05 11:52:04;;;;;;;25.10;17.40;;;19.80;99.90;;;;;;4989325;28;20053;-76
2022/06/05 11:54:58;;;;;;;23.73;16.88;;;19.80;99.90;;;;;;4988623;28;20120;-76
2022/06/05 11:57:39;;;;;;;23.95;17.98;;;19.80;99.90;;;;;;4977081;28;20035;-76
2022/06/05 12:00:15;;;;;;;25.90;18.83;;;19.80;99.90;;;;;;4980123;28;20136;-75
2022/06/05 12:02:43;;;;;;;29.67;19.27;;;19.80;99.90;;;;;;4987672;28;20449;-76
2022/06/05 12:05:41;;;;;;;25.35;17.98;;;19.70;99.90;;;;;;4983636;28;20062;-77
2022/06/05 12:08:14;;;;;;;24.98;18.80;;;19.70;99.90;;;;;;4996814;28;20475;-76
2022/06/05 12:10:55;;;;;;;27.30;18.90;;;19.70;99.90;;;;;;5001114;28;20034;-76
2022/06/05 12:13:34;;;;;;;24.42;18.05;;;19.70;99.90;;;;;;5058991;28;20119;-76
2022/06/05 12:16:28;;;;;;;29.08;19.08;;;19.70;99.90;;;;;;5060677;28;20025;-77
2022/06/05 12:19:08;;;;;;;33.42;19.85;;;19.60;99.90;;;;;;5082769;28;20378;-75
2022/06/05 12:21:53;;;;;;;28.98;19.80;;;19.60;99.90;;;;;;5080466;28;20021;-75
2022/06/05 12:24:36;;;;;;;32.57;20.30;;;19.60;99.90;;;;;;5082703;28;20020;-76
2022/06/05 12:27:09;;;;;;;29.50;19.83;;;19.50;99.90;;;;;;5081110;28;20040;-73
2022/06/05 12:29:50;;;;;;;27.27;20.30;;;19.50;99.90;;;;;;5074441;28;20099;-76
2022/06/05 12:32:25;;;;;;;28.58;19.05;;;19.50;99.90;;;;;;5075161;28;20029;-77
2022/06/05 12:35:00;;;;;;;30.63;20.35;;;19.50;99.90;;;;;;5072824;28;20946;-75
2022/06/05 12:37:30;;;;;;;30.85;20.70;;;19.50;99.90;;;;;;5080626;28;20035;-76
2022/06/05 12:39:57;;;;;;;32.75;21.88;;;19.50;99.90;;;;;;5061251;28;20027;-73
2022/06/05 12:43:01;;;;;;;31.95;20.90;;;19.50;99.90;;;;;;5070205;28;20042;-75
2022/06/05 12:45:30;;;;;;;30.58;20.63;;;19.50;99.90;;;;;;5064775;28;20561;-74
2022/06/05 12:48:09;;;;;;;30.90;20.85;;;19.40;99.90;;;;;;5068883;28;20020;-74
2022/06/05 12:50:51;;;;;;;30.95;21.20;;;19.40;99.90;;;;;;5070622;28;20468;-74
2022/06/05 12:53:37;;;;;;;32.42;21.15;;;19.40;99.90;;;;;;5068188;28;20036;-74
2022/06/05 12:56:26;;;;;;;33.55;22.42;;;19.30;99.90;;;;;;5050752;28;20044;-74
2022/06/05 12:59:19;;;;;;;31.63;22.25;;;19.40;99.90;;;;;;5063877;28;20024;-75
2022/06/05 13:02:03;;;;;;;33.67;22.75;;;19.40;99.90;;;;;;5050884;28;20025;-75
2022/06/05 13:04:57;;;;;;;36.47;23.50;;;19.40;99.90;;;;;;5050301;28;20028;-76
2022/06/05 13:07:36;;;;;;;32.90;22.83;;;19.40;99.90;;;;;;5063972;28;20021;-75
2022/06/05 13:10:23;;;;;;;35.92;22.92;;;19.30;99.90;;;;;;5068832;28;20526;-76
2022/06/05 13:13:09;;;;;;;35.47;23.30;;;19.30;99.90;;;;;;5066128;28;20468;-76
2022/06/05 13:15:39;;;;;;;;;;;19.30;99.90;;;;;;5069443;28;20020;-76
2022/06/05 13:18:37;;;;;;;32.35;22.13;;;19.30;99.90;;;;;;5054645;28;19904;-76